Thursday, October 30, 2014, 7:07 PM EDT

KPTB, Petersburg, Dinwiddie County Airport

Location: Petersburg, VA, United States Lat: 37.183
Local Time: 7:07 PM EDT (23:07 GMT) Lon: -77.517
Time Zone: US/Eastern Elev: 193 ft

Show me the last for .
Show Decoded

2014-10-30 18:35 METAR KPTB 302235Z AUTO 00000KT 10SM SCT060 09/05 A3002 RMK AO2 T00890054 =
2014-10-30 18:15 METAR KPTB 302215Z AUTO 36003KT 10SM SCT060 14/03 A3002 RMK AO2 T01350030 =
2014-10-30 17:55 METAR KPTB 302155Z AUTO 01004KT 10SM CLR 14/03 A3002 RMK AO2 T01440030 =
2014-10-30 17:35 METAR KPTB 302135Z AUTO 36004KT 10SM SCT050 15/02 A3001 RMK AO2 T01510024 =
2014-10-30 17:15 METAR KPTB 302115Z AUTO 01009KT 10SM BKN055 16/03 A3001 RMK AO2 T01580028 =
2014-10-30 16:55 METAR KPTB 302055Z AUTO 02003KT 10SM BKN055 16/03 A3000 RMK AO2 6//// T01600034
                 =
2014-10-30 16:35 METAR KPTB 302035Z AUTO 03007KT 7SM BKN055 17/03 A3000 RMK AO2 T01660027 =
2014-10-30 16:15 METAR KPTB 302015Z AUTO 03003KT 10SM OVC055 16/03 A3000 RMK AO2 T01610027 =
2014-10-30 15:55 METAR KPTB 301955Z AUTO 01005KT 10SM OVC055 16/03 A3000 RMK AO2 T01640029 =
2014-10-30 15:16 METAR KPTB 301916Z AUTO 01005KT 10SM BKN065 18/03 A3000 RMK AO2 =
2014-10-30 14:57 METAR KPTB 301857Z AUTO 00000KT 10SM OVC065 17/02 A3001 RMK AO2 =
2014-10-30 14:55 METAR KPTB 301855Z AUTO 29003KT 10SM BKN065 A3001 RMK AO2 =
2014-10-30 14:35 METAR KPTB 301835Z AUTO 36004KT 10SM SCT050 BKN065 17/03 A3001 RMK AO2 T01700028
                 =
2014-10-30 14:15 METAR KPTB 301815Z AUTO 35007KT 10SM BKN050 16/03 A3002 RMK AO2 T01620028 =
2014-10-30 14:00 METAR KPTB 301800Z AUTO 02005KT 10SM SCT050 16/03 A3002 RMK AO2 T01610030 =
2014-10-30 13:35 METAR KPTB 301735Z AUTO 04004KT 10SM CLR 17/03 A3003 RMK AO2 T01700030 =
2014-10-30 13:15 METAR KPTB 301715Z AUTO 02007KT 10SM CLR 17/03 A3004 RMK AO2 T01650033 =
2014-10-30 12:55 METAR KPTB 301655Z AUTO 04008KT 10SM CLR 17/03 A3005 RMK AO2 T01660033 =
2014-10-30 12:35 METAR KPTB 301635Z AUTO 05006KT 10SM CLR 17/04 A3006 RMK AO2 T01650040 =
2014-10-30 12:15 METAR KPTB 301615Z AUTO 04007KT 10SM CLR 16/04 A3006 RMK AO2 T01600044 =
2014-10-30 11:55 METAR KPTB 301555Z AUTO 04003KT 10SM CLR 15/05 A3007 RMK AO2 T01530046 =
2014-10-30 11:35 METAR KPTB 301535Z AUTO 01006KT 10SM CLR 15/06 A3007 RMK AO2 T01530057 =
2014-10-30 11:15 METAR KPTB 301515Z AUTO 01006KT 10SM CLR 15/05 A3008 RMK AO2 T01450049 =
2014-10-30 10:55 METAR KPTB 301455Z AUTO 03008KT 10SM CLR 14/05 A3008 RMK AO2 T01430050 =
2014-10-30 10:35 METAR KPTB 301435Z AUTO 02007KT 10SM CLR 13/06 A3008 RMK AO2 T01340057 =
2014-10-30 10:15 METAR KPTB 301415Z AUTO 35004KT 10SM CLR 13/06 A3007 RMK AO2 T01280063 =
2014-10-30 09:55 METAR KPTB 301355Z AUTO 36005KT 10SM CLR 12/07 A3007 RMK AO2 T01220067 =
2014-10-30 09:35 METAR KPTB 301335Z AUTO 01005KT 10SM CLR 11/08 A3007 RMK AO2 T01130080 =
2014-10-30 09:15 METAR KPTB 301315Z AUTO 36006KT 10SM CLR 10/09 A3007 RMK AO2 T01040091 =
2014-10-30 08:55 METAR KPTB 301255Z AUTO 35007KT 10SM SCT003 10/10 A3007 RMK AO2 T00990095 =
2014-10-30 08:35 METAR KPTB 301235Z AUTO 33004KT M1/4SM FG OVC003 10/10 A3006 RMK AO2 T01010096 =
2014-10-30 08:15 METAR KPTB 301215Z AUTO 00000KT 1/4SM FG OVC003 09/09 A3005 RMK AO2 T00900085 =
2014-10-30 07:55 METAR KPTB 301155Z AUTO 00000KT 1/4SM FG OVC003 09/08 A3004 RMK AO2 T00850080
                 10118 20062 =
2014-10-30 07:35 METAR KPTB 301135Z AUTO 00000KT M1/4SM FG OVC003 07/06 A3003 RMK AO2 T00680064 =
2014-10-30 07:15 METAR KPTB 301115Z AUTO 00000KT 1/4SM FG OVC003 06/06 A3003 RMK AO2 T00630059 =
2014-10-30 06:55 METAR KPTB 301055Z AUTO 00000KT 1/4SM FG OVC003 07/06 A3003 RMK AO2 T00670063 =
2014-10-30 06:35 METAR KPTB 301035Z AUTO 00000KT 3SM BR CLR 07/06 A3003 RMK AO2 T00680063 =
2014-10-30 06:15 METAR KPTB 301015Z AUTO 00000KT 1 1/2SM -DZ BKN090 08/07 A3002 RMK AO2 T00760071
                 =
2014-10-30 05:55 METAR KPTB 300955Z AUTO 00000KT 4SM BR BKN090 10/09 A3002 RMK AO2 T00970092 =
2014-10-30 05:35 METAR KPTB 300935Z AUTO 00000KT 3/4SM BR OVC090 10/09 A3001 RMK AO2 T00970092 =
2014-10-30 05:15 METAR KPTB 300915Z AUTO 00000KT 1 1/4SM BR SCT002 OVC090 10/09 A3000 RMK AO2
                 T00980093 =
2014-10-30 04:55 METAR KPTB 300855Z AUTO 00000KT 3/4SM BR SCT002 OVC090 10/10 A3000 RMK AO2
                 T01010096 =
2014-10-30 04:35 METAR KPTB 300835Z AUTO 00000KT 4SM -RA BKN090 11/11 A3000 RMK AO2 T01120107 =
2014-10-30 04:15 METAR KPTB 300815Z AUTO 00000KT 5SM -RA SCT060 OVC090 11/11 A3001 RMK AO2
                 T01140109 =
2014-10-30 03:55 METAR KPTB 300755Z AUTO 00000KT 7SM -RA OVC090 12/11 A3001 RMK AO2 T01150109 =
2014-10-30 03:35 METAR KPTB 300735Z AUTO 00000KT 7SM OVC090 12/11 A3002 RMK AO2 T01150109 =
2014-10-30 03:15 METAR KPTB 300715Z AUTO 00000KT 5SM -DZ OVC090 12/11 A3001 RMK AO2 T01150109 =
2014-10-30 02:55 METAR KPTB 300655Z AUTO 00000KT 7SM -RA SCT065 OVC090 12/11 A3001 RMK AO2
                 T01160110 =
2014-10-30 02:35 METAR KPTB 300635Z AUTO 00000KT 7SM -RA BKN065 OVC080 12/11 A3003 RMK AO2
                 T01160110 =
2014-10-30 02:15 METAR KPTB 300615Z AUTO 00000KT 7SM SCT060 BKN070 OVC085 12/11 A3003 RMK AO2
                 T01170110 =
2014-10-30 01:55 METAR KPTB 300555Z AUTO 00000KT 7SM BKN050 BKN070 OVC100 12/11 A3002 RMK AO2
                 T01190111 10162 20118 =
2014-10-30 01:35 METAR KPTB 300535Z AUTO 00000KT 10SM -RA OVC050 12/11 A3003 RMK AO2 T01190110 =
2014-10-30 01:15 METAR KPTB 300515Z AUTO 28003KT 7SM -RA BKN050 BKN070 OVC100 12/11 A3002 RMK AO2
                 T01210110 =
2014-10-30 00:55 METAR KPTB 300455Z AUTO 30004KT 10SM -RA SCT050 BKN095 OVC120 12/11 A3001 RMK
                 AO2 T01230110 402520121 =
2014-10-30 00:35 METAR KPTB 300435Z AUTO 32004KT 10SM SCT060 OVC070 12/11 A3000 RMK AO2 T01230105
                 =
2014-10-30 00:15 METAR KPTB 300415Z AUTO 00000KT 10SM SCT031 BKN070 OVC080 12/10 A2999 RMK AO2
                 T01220100 =
2014-10-29 23:55 METAR KPTB 300355Z AUTO 05004KT 10SM BKN070 OVC080 13/10 A2999 RMK AO2 T01250098
                 =
2014-10-29 23:35 METAR KPTB 300335Z AUTO 05004KT 10SM SCT032 OVC070 13/10 A3000 RMK AO2 T01270100
                 =
2014-10-29 23:15 METAR KPTB 300315Z AUTO 06003KT 10SM -RA SCT032 OVC060 13/10 A3000 RMK AO2
                 T01280103 =
2014-10-29 22:55 METAR KPTB 300255Z AUTO 08003KT 10SM -RA OVC060 13/10 A3000 RMK AO2 T01280100 =
2014-10-29 22:35 METAR KPTB 300235Z AUTO 06003KT 10SM OVC060 13/11 A3001 RMK AO2 T01280105 =
2014-10-29 22:15 METAR KPTB 300215Z AUTO 05005KT 10SM -RA SCT027 OVC060 13/10 A3001 RMK AO2
                 T01290102 =
2014-10-29 21:55 METAR KPTB 300155Z AUTO 06005KT 10SM -RA BKN027 BKN031 OVC038 13/11 A3001 RMK
                 AO2 T01300110 =
2014-10-29 21:35 METAR KPTB 300135Z AUTO 03005KT 10SM -RA SCT027 BKN044 OVC055 13/11 A3000 RMK
                 AO2 T01320113 =
2014-10-29 21:15 METAR KPTB 300115Z AUTO 02005KT 10SM -DZ SCT029 SCT036 OVC055 14/11 A3000 RMK
                 AO2 T01350110 =
2014-10-29 20:55 METAR KPTB 300055Z AUTO 03006KT 10SM -DZ SCT031 SCT038 OVC055 14/11 A3000 RMK
                 AO2 T01400111 =
2014-10-29 20:35 METAR KPTB 300035Z AUTO 04006KT 10SM -RA BKN050 OVC065 15/11 A2999 RMK AO2
                 T01450113 =
2014-10-29 20:15 METAR KPTB 300015Z AUTO 03006KT 7SM -RA SCT031 OVC065 16/11 A2998 RMK AO2
                 T01560106 =
2014-10-29 19:55 METAR KPTB 292355Z AUTO 01007KT 10SM -RA SCT031 BKN065 OVC100 16/10 A2998 RMK
                 AO2 T01610104 10252 20161 =
2014-10-29 19:35 METAR KPTB 292335Z AUTO 02008KT 10SM BKN075 OVC110 16/11 A2997 RMK AO2 T01640109
                 =
2014-10-29 19:15 METAR KPTB 292315Z AUTO 03009KT 10SM -RA SCT085 BKN090 OVC110 17/12 A2995 RMK
                 AO2 T01730117 =

Support USWX by starting your Amazon purchase here.